Time;durP1;ratioP1;P1;durP2;ratioP2;P2;SDS_P1;SDS_P2;PMS_P1;PMS_P2;Temp;Humidity;BMP_temperature;BMP_pressure;BME280_temperature;BME280_humidity;BME280_pressure;Samples;Min_cycle;Max_cycle;Signal;HPM_P1;HPM_P2
2022/11/20 00:00:21;;;;;;;5.07;4.87;;;20.70;57.50;;;;;;5034554;28;20929;-62
2022/11/20 00:02:48;;;;;;;5.10;4.90;;;20.70;57.40;;;;;;5034662;28;20440;-63
2022/11/20 00:05:15;;;;;;;4.87;4.67;;;20.80;57.50;;;;;;5034669;28;20495;-62
2022/11/20 00:07:42;;;;;;;4.70;4.50;;;20.80;57.40;;;;;;5034442;28;20475;-63
2022/11/20 00:10:09;;;;;;;5.83;5.50;;;20.70;57.30;;;;;;5034240;28;20491;-62
2022/11/20 00:12:37;;;;;;;5.03;4.83;;;20.80;57.40;;;;;;5034474;28;20441;-63
2022/11/20 00:15:04;;;;;;;5.23;4.93;;;20.70;57.30;;;;;;5034382;28;20451;-63
2022/11/20 00:17:31;;;;;;;5.30;5.00;;;20.70;57.30;;;;;;5034117;28;20892;-63
2022/11/20 00:19:58;;;;;;;5.00;4.70;;;20.70;57.30;;;;;;5034293;28;20552;-61
2022/11/20 00:22:25;;;;;;;5.37;5.17;;;20.70;57.40;;;;;;5034242;28;20464;-61
2022/11/20 00:24:52;;;;;;;5.20;5.00;;;20.70;56.70;;;;;;5034364;28;20447;-61
2022/11/20 00:27:19;;;;;;;5.40;5.10;;;20.60;56.70;;;;;;5034182;28;20544;-61
2022/11/20 00:29:47;;;;;;;5.90;5.50;;;20.70;56.60;;;;;;5033963;28;20465;-59
2022/11/20 00:32:14;;;;;;;5.90;5.60;;;20.70;56.60;;;;;;5034222;28;20873;-63
2022/11/20 00:34:41;;;;;;;6.20;5.90;;;20.80;56.50;;;;;;5033953;28;20445;-64
2022/11/20 00:37:08;;;;;;;6.00;5.70;;;20.80;56.40;;;;;;5033826;28;20445;-63
2022/11/20 00:39:34;;;;;;;6.60;6.20;;;20.90;56.30;;;;;;5033915;28;20499;-63
2022/11/20 00:42:01;;;;;;;5.70;5.40;;;20.80;56.20;;;;;;5033924;28;20789;-65
2022/11/20 00:44:28;;;;;;;5.00;4.80;;;20.90;56.20;;;;;;5033857;28;20531;-64
2022/11/20 00:46:56;;;;;;;5.40;5.20;;;20.90;56.20;;;;;;5033799;28;20481;-65
2022/11/20 00:49:23;;;;;;;5.63;5.40;;;20.80;56.40;;;;;;5033571;28;20568;-64
2022/11/20 00:51:50;;;;;;;6.50;6.10;;;20.80;56.60;;;;;;5033603;28;20480;-64
2022/11/20 00:54:17;;;;;;;5.90;5.60;;;20.80;56.60;;;;;;5033661;28;20449;-65
2022/11/20 00:56:43;;;;;;;5.50;5.20;;;20.70;56.70;;;;;;5033513;28;20799;-65
2022/11/20 00:59:11;;;;;;;4.70;4.53;;;20.70;56.70;;;;;;5033459;28;20465;-64
2022/11/20 01:01:38;;;;;;;5.83;5.53;;;20.60;56.70;;;;;;5033629;28;20447;-64
2022/11/20 01:04:06;;;;;;;5.03;4.83;;;20.50;56.70;;;;;;5033146;28;20549;-64
2022/11/20 01:06:35;;;;;;;6.00;5.70;;;20.50;56.90;;;;;;5033327;28;20480;-65
2022/11/20 01:09:04;;;;;;;5.93;5.63;;;20.50;57.00;;;;;;5033285;28;20465;-65
2022/11/20 01:11:33;;;;;;;5.70;5.40;;;20.40;57.00;;;;;;5033312;28;20572;-64
2022/11/20 01:14:01;;;;;;;6.03;5.73;;;20.40;57.10;;;;;;5033323;28;20858;-65
2022/11/20 01:16:30;;;;;;;5.70;5.40;;;20.40;57.20;;;;;;5033129;28;20956;-64
2022/11/20 01:18:59;;;;;;;5.97;5.67;;;20.30;57.20;;;;;;5033322;28;20528;-65
2022/11/20 01:21:29;;;;;;;5.23;4.93;;;20.30;57.30;;;;;;5033075;28;20452;-65
2022/11/20 01:23:56;;;;;;;5.80;5.40;;;20.30;58.00;;;;;;5033139;28;20525;-65
2022/11/20 01:26:25;;;;;;;5.90;5.33;;;20.20;57.50;;;;;;5032771;28;20451;-64
2022/11/20 01:28:52;;;;;;;5.33;4.93;;;20.30;57.60;;;;;;5033179;28;20571;-65
2022/11/20 01:31:20;;;;;;;6.00;5.70;;;20.20;57.70;;;;;;5033070;28;20926;-64
2022/11/20 01:33:49;;;;;;;5.67;5.27;;;20.20;57.80;;;;;;5032930;28;20956;-65
2022/11/20 01:36:17;;;;;;;4.80;4.60;;;20.20;57.90;;;;;;5032805;28;20539;-65
2022/11/20 01:38:46;;;;;;;5.60;5.30;;;20.20;58.00;;;;;;5032783;28;20464;-65
2022/11/20 01:43:20;;;;;;;5.30;5.00;;;20.20;58.00;;;;;;5032722;28;20487;-65
2022/11/20 01:44:02;;;;;;;4.90;4.70;;;20.10;58.00;;;;;;5032759;28;20449;-64
2022/11/20 01:46:29;;;;;;;5.37;5.07;;;20.10;58.10;;;;;;5032625;28;20800;-64
2022/11/20 01:49:01;;;;;;;5.63;5.33;;;20.10;58.80;;;;;;5032466;28;20555;-64
2022/11/20 01:51:33;;;;;;;5.50;5.20;;;20.10;58.30;;;;;;5032563;28;20576;-64
2022/11/20 01:54:06;;;;;;;5.90;5.50;;;20.00;58.30;;;;;;5032649;28;20883;-64
2022/11/20 01:56:36;;;;;;;5.80;5.50;;;20.00;58.30;;;;;;5032765;28;20536;-65
2022/11/20 01:59:08;;;;;;;5.27;5.07;;;20.00;58.40;;;;;;5032401;28;20500;-64
2022/11/20 02:01:35;;;;;;;5.63;5.33;;;20.00;58.50;;;;;;5032672;28;20517;-64
2022/11/20 02:04:02;;;;;;;5.20;4.90;;;20.00;58.60;;;;;;5032388;28;20869;-64
2022/11/20 02:06:33;;;;;;;5.70;5.40;;;20.00;58.60;;;;;;5032280;28;20520;-64
2022/11/20 02:09:01;;;;;;;5.40;5.10;;;19.90;58.50;;;;;;5032173;28;20457;-64
2022/11/20 02:11:31;;;;;;;5.20;5.00;;;19.90;58.60;;;;;;5032202;28;20520;-64
2022/11/20 02:13:57;;;;;;;5.83;5.53;;;19.90;58.60;;;;;;5031708;28;20480;-64
2022/11/20 02:16:26;;;;;;;5.50;5.20;;;19.90;58.70;;;;;;5031832;28;20453;-64
2022/11/20 02:18:55;;;;;;;5.33;5.03;;;19.90;58.80;;;;;;5032015;28;20556;-64
2022/11/20 02:21:29;;;;;;;5.70;5.20;;;19.90;58.80;;;;;;5032173;28;20436;-64
2022/11/20 02:24:06;;;;;;;5.90;5.60;;;19.90;58.90;;;;;;5032024;28;20528;-64
2022/11/20 02:26:38;;;;;;;6.00;5.70;;;19.80;58.80;;;;;;5032030;28;20527;-64
2022/11/20 02:29:06;;;;;;;4.80;4.50;;;19.80;58.90;;;;;;5032054;28;21050;-65
2022/11/20 02:31:39;;;;;;;4.90;4.70;;;19.80;58.90;;;;;;5031447;28;20480;-64
2022/11/20 02:34:06;;;;;;;5.97;5.47;;;19.80;58.90;;;;;;5031605;28;20480;-64
2022/11/20 02:36:35;;;;;;;5.63;5.33;;;19.80;59.00;;;;;;5030689;28;20997;-64
2022/11/20 02:39:04;;;;;;;6.33;6.03;;;19.80;59.00;;;;;;5031584;28;20546;-64
2022/11/20 02:41:35;;;;;;;5.77;5.50;;;19.80;59.00;;;;;;5031734;28;20548;-64
2022/11/20 02:44:02;;;;;;;5.27;4.97;;;19.80;59.10;;;;;;5031528;28;20923;-63
2022/11/20 02:46:29;;;;;;;5.40;5.20;;;19.80;59.10;;;;;;5031690;28;20476;-64
2022/11/20 02:48:56;;;;;;;5.57;5.17;;;19.80;59.20;;;;;;5031533;28;20552;-64
2022/11/20 02:51:24;;;;;;;5.43;5.13;;;19.80;59.20;;;;;;5031234;28;20506;-64
2022/11/20 02:53:51;;;;;;;5.90;5.50;;;19.80;59.20;;;;;;5031497;28;20469;-64
2022/11/20 02:56:19;;;;;;;5.83;5.47;;;19.70;59.10;;;;;;5031519;28;20523;-64
2022/11/20 02:58:46;;;;;;;5.93;5.63;;;19.70;59.20;;;;;;5031522;28;20519;-64
2022/11/20 03:01:13;;;;;;;6.87;6.47;;;19.70;59.20;;;;;;5031348;28;20446;-64
2022/11/20 03:03:40;;;;;;;5.53;5.13;;;19.70;59.20;;;;;;5031646;28;20939;-63
2022/11/20 03:06:07;;;;;;;5.97;5.63;;;19.70;59.20;;;;;;5031498;28;20452;-63
2022/11/20 03:08:34;;;;;;;5.70;5.33;;;19.70;59.20;;;;;;5031324;28;20508;-63
2022/11/20 03:11:04;;;;;;;5.10;4.80;;;19.70;59.30;;;;;;5031154;28;20556;-64
2022/11/20 03:13:33;;;;;;;5.37;5.07;;;19.70;59.80;;;;;;5031516;28;20482;-63
2022/11/20 03:16:05;;;;;;;5.33;5.13;;;19.70;59.30;;;;;;5031479;28;20480;-64
2022/11/20 03:18:32;;;;;;;6.20;5.90;;;19.70;59.40;;;;;;5031352;28;20875;-63
2022/11/20 03:20:59;;;;;;;6.20;5.70;;;19.60;59.30;;;;;;5031112;28;20441;-64
2022/11/20 03:23:26;;;;;;;6.63;6.23;;;19.60;59.30;;;;;;5031363;28;20444;-64
2022/11/20 03:25:53;;;;;;;5.77;5.47;;;19.60;59.40;;;;;;5032357;28;20455;-64
2022/11/20 03:28:20;;;;;;;5.70;5.40;;;19.60;59.40;;;;;;5035335;28;20559;-64
2022/11/20 03:30:48;;;;;;;5.90;5.60;;;19.60;59.40;;;;;;5034985;28;20507;-65
2022/11/20 03:33:15;;;;;;;5.03;4.80;;;19.60;59.50;;;;;;5035277;28;20539;-65
2022/11/20 03:35:42;;;;;;;5.10;4.80;;;19.60;59.50;;;;;;5035316;28;20449;-64
2022/11/20 03:38:09;;;;;;;5.57;5.27;;;19.60;59.40;;;;;;5034913;28;20460;-64
2022/11/20 03:40:36;;;;;;;6.30;5.80;;;19.60;59.50;;;;;;5034967;28;20449;-64
2022/11/20 03:43:03;;;;;;;5.30;5.10;;;19.60;59.50;;;;;;5035025;28;20440;-64
2022/11/20 03:45:30;;;;;;;6.60;6.20;;;19.50;59.50;;;;;;5034981;28;20806;-64
2022/11/20 03:47:58;;;;;;;5.57;5.27;;;19.50;59.50;;;;;;5034513;28;20445;-64
2022/11/20 03:50:25;;;;;;;5.40;5.20;;;19.50;59.50;;;;;;5034812;28;20822;-64
2022/11/20 03:52:51;;;;;;;5.10;4.90;;;19.50;59.50;;;;;;5034776;28;20563;-64
2022/11/20 03:55:18;;;;;;;5.10;4.80;;;19.50;59.50;;;;;;5034900;28;20809;-64
2022/11/20 03:57:45;;;;;;;6.10;5.80;;;19.50;59.60;;;;;;5034803;28;20441;-64
2022/11/20 04:00:13;;;;;;;5.67;5.30;;;19.50;59.60;;;;;;5034816;28;20560;-64
2022/11/20 04:02:40;;;;;;;5.90;5.60;;;19.50;59.60;;;;;;5015084;28;20452;-64
2022/11/20 04:05:09;;;;;;;5.47;5.17;;;19.50;59.60;;;;;;5014943;28;20545;-64
2022/11/20 04:07:36;;;;;;;4.60;4.40;;;19.50;59.60;;;;;;5014627;28;20942;-63
2022/11/20 04:10:03;;;;;;;4.97;4.70;;;19.50;59.60;;;;;;5014594;28;20484;-64
2022/11/20 04:12:34;;;;;;;5.60;5.30;;;19.50;59.70;;;;;;5033200;28;21061;-64
2022/11/20 04:15:01;;;;;;;4.80;4.60;;;19.50;60.30;;;;;;5034457;28;20437;-64
2022/11/20 04:17:27;;;;;;;5.93;5.63;;;19.50;59.70;;;;;;5034313;28;20825;-64
2022/11/20 04:19:54;;;;;;;5.97;5.67;;;19.50;59.80;;;;;;5034550;28;20995;-64
2022/11/20 04:22:22;;;;;;;4.97;4.67;;;19.50;59.80;;;;;;5034107;28;20443;-64
2022/11/20 04:24:49;;;;;;;5.13;4.93;;;19.50;59.80;;;;;;5034216;28;20477;-64
2022/11/20 04:27:16;;;;;;;5.53;5.27;;;19.40;59.90;;;;;;5034233;28;20958;-64
2022/11/20 04:29:43;;;;;;;5.17;4.80;;;19.40;60.00;;;;;;5034035;28;20461;-65
2022/11/20 04:32:10;;;;;;;5.93;5.60;;;19.40;60.00;;;;;;5034107;28;20481;-64
2022/11/20 04:34:37;;;;;;;5.10;4.83;;;19.40;60.00;;;;;;5034226;28;20480;-65
2022/11/20 04:37:03;;;;;;;6.20;5.80;;;19.40;60.00;;;;;;5033119;28;20858;-64
2022/11/20 04:39:32;;;;;;;4.90;4.70;;;19.40;60.00;;;;;;5033592;28;20476;-63
2022/11/20 04:44:39;;;;;;;5.23;4.97;;;19.40;60.00;;;;;;5033638;28;20429;-64
2022/11/20 04:47:07;;;;;;;4.73;4.53;;;19.40;60.00;;;;;;5033696;28;20445;-63
2022/11/20 04:49:33;;;;;;;4.93;4.63;;;19.40;60.10;;;;;;5033531;28;20858;-64
2022/11/20 04:52:00;;;;;;;5.00;4.73;;;19.40;60.10;;;;;;5033685;28;20484;-64
2022/11/20 04:54:27;;;;;;;4.80;4.50;;;19.30;60.00;;;;;;5033752;28;20884;-64
2022/11/20 04:56:55;;;;;;;5.40;5.10;;;19.40;60.10;;;;;;5033453;28;20540;-64
2022/11/20 04:59:22;;;;;;;5.73;5.43;;;19.30;60.00;;;;;;5033395;28;20467;-64
2022/11/20 05:01:49;;;;;;;5.87;5.57;;;19.30;60.10;;;;;;5033621;28;21035;-64
2022/11/20 05:04:16;;;;;;;5.37;5.00;;;19.40;60.20;;;;;;5033704;28;20451;-63
2022/11/20 05:06:43;;;;;;;6.83;6.43;;;19.30;60.10;;;;;;5033372;28;20479;-63
2022/11/20 05:09:10;;;;;;;5.43;5.17;;;19.30;60.10;;;;;;5033533;28;20982;-64
2022/11/20 05:11:36;;;;;;;5.07;4.83;;;19.30;60.10;;;;;;5033367;28;20530;-64
2022/11/20 05:14:05;;;;;;;5.67;5.37;;;19.30;60.10;;;;;;5033358;28;20938;-63
2022/11/20 05:16:32;;;;;;;5.33;5.03;;;19.30;60.20;;;;;;5033293;28;20583;-63
2022/11/20 05:18:58;;;;;;;5.33;5.03;;;19.30;60.20;;;;;;5032915;28;20874;-64
2022/11/20 05:21:25;;;;;;;6.00;5.50;;;19.30;60.20;;;;;;5033141;28;20441;-63
2022/11/20 05:23:52;;;;;;;5.00;4.83;;;19.30;60.20;;;;;;5033248;28;20875;-64
2022/11/20 05:26:21;;;;;;;5.90;5.60;;;19.30;60.10;;;;;;5033247;28;20524;-64
2022/11/20 05:28:48;;;;;;;5.10;4.90;;;19.30;60.20;;;;;;5032889;28;20844;-64
2022/11/20 05:31:18;;;;;;;5.90;5.60;;;19.30;60.20;;;;;;5033073;28;20436;-63
2022/11/20 05:33:46;;;;;;;5.90;5.60;;;19.30;60.20;;;;;;5033071;28;20540;-63
2022/11/20 05:36:14;;;;;;;6.03;5.63;;;19.30;60.20;;;;;;5032871;28;20863;-64
2022/11/20 05:38:42;;;;;;;6.83;6.33;;;19.30;61.00;;;;;;5032542;28;20556;-64
2022/11/20 05:41:10;;;;;;;5.43;5.13;;;19.20;60.10;;;;;;5032865;28;20480;-64
2022/11/20 05:43:38;;;;;;;5.20;5.00;;;19.20;60.10;;;;;;5032927;28;20476;-64
2022/11/20 05:46:05;;;;;;;5.10;4.90;;;19.20;60.10;;;;;;5032557;28;20499;-64
2022/11/20 05:48:35;;;;;;;6.97;6.60;;;19.20;60.20;;;;;;5032897;28;20519;-64
2022/11/20 05:51:04;;;;;;;5.93;5.63;;;19.20;60.20;;;;;;5032751;28;20452;-64
2022/11/20 05:53:31;;;;;;;5.73;5.43;;;19.20;60.20;;;;;;5032623;28;20595;-64
2022/11/20 05:55:59;;;;;;;6.03;5.73;;;19.20;60.20;;;;;;5032482;28;20451;-64
2022/11/20 05:58:25;;;;;;;5.70;5.40;;;19.20;60.20;;;;;;5032520;28;20500;-64
2022/11/20 06:00:53;;;;;;;5.60;5.30;;;19.20;60.30;;;;;;5032510;28;20531;-64
2022/11/20 06:03:20;;;;;;;5.53;5.33;;;19.20;60.30;;;;;;5032402;28;20519;-64
2022/11/20 06:05:48;;;;;;;6.10;5.90;;;19.20;60.40;;;;;;5032261;28;20527;-64
2022/11/20 06:08:15;;;;;;;5.60;5.20;;;19.20;60.30;;;;;;5032281;28;20499;-64
2022/11/20 06:10:41;;;;;;;5.80;5.50;;;19.20;60.40;;;;;;5032374;28;20469;-64
2022/11/20 06:13:08;;;;;;;5.30;5.10;;;19.20;60.50;;;;;;5032153;28;20572;-64
2022/11/20 06:15:35;;;;;;;6.50;6.10;;;19.20;60.50;;;;;;5032025;28;20451;-64
2022/11/20 06:18:02;;;;;;;5.23;5.03;;;19.20;60.50;;;;;;5031849;28;20451;-64
2022/11/20 06:20:29;;;;;;;6.30;5.70;;;19.10;60.30;;;;;;5032157;28;20449;-64
2022/11/20 06:22:57;;;;;;;4.80;4.60;;;19.10;60.40;;;;;;5032136;28;20437;-64
2022/11/20 06:25:24;;;;;;;5.00;4.80;;;19.10;60.50;;;;;;5032109;28;20552;-64
2022/11/20 06:27:50;;;;;;;5.53;5.33;;;19.10;60.50;;;;;;5031678;28;20536;-64
2022/11/20 06:30:17;;;;;;;5.30;5.10;;;19.10;60.50;;;;;;5032005;28;20471;-64
2022/11/20 06:32:44;;;;;;;5.93;5.50;;;19.10;60.50;;;;;;5031705;28;20517;-64
2022/11/20 06:35:11;;;;;;;5.50;5.20;;;19.10;60.50;;;;;;5031951;28;20448;-64
2022/11/20 06:37:38;;;;;;;5.73;5.43;;;19.10;61.30;;;;;;5031452;28;20452;-64
2022/11/20 06:52:25;;;;;;;5.77;5.53;;;19.10;60.10;;;;;;5088521;28;20565;-66
2022/11/20 06:54:51;;;;;;;8.33;7.93;;;19.70;59.60;;;;;;5068563;28;20546;-64
2022/11/20 06:57:18;;;;;;;6.23;5.93;;;19.70;59.50;;;;;;5068707;28;20446;-64
2022/11/20 06:59:45;;;;;;;6.40;6.10;;;19.70;59.50;;;;;;5068651;28;20883;-70
2022/11/20 07:02:12;;;;;;;6.23;5.83;;;19.70;59.50;;;;;;5068257;28;20550;-70
2022/11/20 07:04:40;;;;;;;6.23;5.93;;;19.60;59.70;;;;;;5069007;28;20558;-70
2022/11/20 07:07:06;;;;;;;6.00;5.70;;;19.60;59.60;;;;;;5068730;28;20990;-67
2022/11/20 07:09:35;;;;;;;5.70;5.50;;;19.60;60.10;;;;;;5068482;28;20806;-64
2022/11/20 07:12:01;;;;;;;5.47;5.17;;;19.60;60.10;;;;;;5068203;28;20470;-62
2022/11/20 07:14:28;;;;;;;5.90;5.53;;;19.60;59.90;;;;;;5068453;28;20829;-63
2022/11/20 07:16:55;;;;;;;5.50;5.30;;;19.70;60.30;;;;;;5068611;28;20954;-65
2022/11/20 07:19:23;;;;;;;5.93;5.57;;;19.80;60.10;;;;;;5068386;28;20451;-65
2022/11/20 07:21:51;;;;;;;8.20;7.80;;;19.80;59.60;;;;;;5073803;28;20543;-66
2022/11/20 07:24:18;;;;;;;6.20;5.80;;;19.80;59.30;;;;;;5075521;28;20443;-67
2022/11/20 07:26:48;;;;;;;5.67;5.37;;;19.90;59.20;;;;;;5070663;28;20542;-67
2022/11/20 07:29:16;;;;;;;6.20;5.80;;;20.00;59.10;;;;;;5074388;28;20530;-65
2022/11/20 07:31:43;;;;;;;6.27;5.90;;;20.10;59.00;;;;;;5072231;28;20467;-64
2022/11/20 07:34:10;;;;;;;6.17;5.77;;;20.10;58.80;;;;;;5072464;28;20505;-64
2022/11/20 07:36:37;;;;;;;7.13;5.40;;;20.20;58.80;;;;;;5069816;28;20538;-63
2022/11/20 07:39:04;;;;;;;5.23;5.00;;;20.30;58.70;;;;;;5068614;28;20546;-67
2022/11/20 07:41:31;;;;;;;6.07;5.77;;;20.30;58.60;;;;;;5068812;28;20475;-62
2022/11/20 07:43:59;;;;;;;7.23;6.60;;;20.40;59.10;;;;;;5069005;28;20538;-62
2022/11/20 07:46:27;;;;;;;6.27;5.77;;;20.40;59.00;;;;;;5070367;28;20882;-64
2022/11/20 07:48:54;;;;;;;5.87;5.57;;;20.50;58.30;;;;;;5068585;28;20451;-65
2022/11/20 07:51:21;;;;;;;6.17;5.77;;;20.50;58.20;;;;;;5067774;28;20452;-67
2022/11/20 07:53:48;;;;;;;6.10;5.77;;;20.50;58.10;;;;;;5055813;28;20444;-65
2022/11/20 07:56:15;;;;;;;4.97;4.77;;;20.60;58.10;;;;;;5056673;28;20448;-67
2022/11/20 07:58:42;;;;;;;6.47;5.97;;;20.60;58.00;;;;;;5057497;28;20531;-65
2022/11/20 08:01:11;;;;;;;6.33;5.77;;;20.70;57.80;;;;;;5057964;28;20518;-64
2022/11/20 08:03:38;;;;;;;5.80;5.50;;;20.70;57.70;;;;;;5058123;28;20554;-65
2022/11/20 08:06:06;;;;;;;6.60;6.20;;;20.80;57.60;;;;;;5055590;28;21198;-63
2022/11/20 08:08:32;;;;;;;5.90;5.60;;;20.80;58.00;;;;;;5054591;28;20468;-63
2022/11/20 08:14:11;;;;;;;6.30;6.00;;;20.80;58.10;;;;;;5054117;28;20445;-65
2022/11/20 08:16:33;;;;;;;6.50;6.10;;;20.90;57.30;;;;;;5054494;28;20440;-66
2022/11/20 08:19:00;;;;;;;6.20;5.90;;;20.90;57.10;;;;;;5054295;28;20543;-66
2022/11/20 08:21:27;;;;;;;6.63;6.20;;;20.90;57.10;;;;;;5053905;28;20484;-65
2022/11/20 08:23:54;;;;;;;6.20;5.60;;;20.90;57.00;;;;;;5054022;28;20448;-65
2022/11/20 08:26:22;;;;;;;6.47;6.07;;;20.90;56.90;;;;;;5053904;28;20498;-65
2022/11/20 08:28:49;;;;;;;6.40;6.10;;;20.90;56.80;;;;;;5054663;28;20531;-67
2022/11/20 08:31:16;;;;;;;6.30;6.00;;;20.90;56.80;;;;;;5053931;28;21041;-69
2022/11/20 08:33:44;;;;;;;6.00;5.70;;;20.90;56.80;;;;;;5054253;28;20468;-69
2022/11/20 08:36:11;;;;;;;5.90;5.60;;;20.90;56.80;;;;;;5054253;28;20444;-67
2022/11/20 08:38:38;;;;;;;6.10;5.53;;;20.90;56.70;;;;;;5054033;28;20535;-69
2022/11/20 08:41:25;;;;;;;6.70;6.40;;;20.90;56.70;;;;;;5053641;28;20511;-68
2022/11/20 08:43:53;;;;;;;6.17;5.87;;;20.90;56.70;;;;;;5053708;28;20448;-66
2022/11/20 08:46:21;;;;;;;6.27;5.97;;;20.80;56.60;;;;;;5053758;28;20444;-67
2022/11/20 08:48:50;;;;;;;6.43;6.13;;;20.80;56.80;;;;;;5047181;28;20548;-67
2022/11/20 08:51:17;;;;;;;6.10;5.80;;;20.70;56.80;;;;;;5033600;28;20455;-65
2022/11/20 08:53:44;;;;;;;6.47;6.17;;;20.70;57.00;;;;;;5034258;28;20461;-68
2022/11/20 08:56:11;;;;;;;6.90;6.50;;;20.70;57.10;;;;;;5034008;28;20969;-68
2022/11/20 08:58:39;;;;;;;6.20;5.90;;;20.60;57.10;;;;;;5033400;28;21034;-68
2022/11/20 09:01:06;;;;;;;6.33;5.93;;;20.60;57.20;;;;;;5034016;28;20571;-65
2022/11/20 09:03:33;;;;;;;6.43;6.13;;;20.60;57.30;;;;;;5033295;28;20828;-64
2022/11/20 09:06:03;;;;;;;6.30;6.00;;;20.60;57.40;;;;;;5033685;28;20885;-66
2022/11/20 09:08:31;;;;;;;6.70;6.10;;;20.60;57.60;;;;;;5033998;28;20532;-69
2022/11/20 09:10:59;;;;;;;5.80;5.40;;;20.50;57.90;;;;;;5033254;28;20444;-65
2022/11/20 09:13:27;;;;;;;6.23;5.93;;;20.50;58.10;;;;;;5033194;28;20477;-62
2022/11/20 09:15:56;;;;;;;5.13;4.90;;;20.60;58.80;;;;;;5032867;28;20453;-64
2022/11/20 09:18:23;;;;;;;6.33;5.83;;;20.60;59.10;;;;;;5033134;28;20449;-69
2022/11/20 09:20:50;;;;;;;5.07;4.87;;;20.70;59.00;;;;;;5032859;28;20527;-71
2022/11/20 09:23:18;;;;;;;5.40;5.00;;;20.80;58.40;;;;;;5032815;28;20560;-69
2022/11/20 09:25:45;;;;;;;5.70;5.40;;;20.90;58.00;;;;;;5039670;28;20486;-66
2022/11/20 09:28:12;;;;;;;5.83;5.53;;;20.90;57.70;;;;;;5054010;28;20490;-65
2022/11/20 09:30:39;;;;;;;5.97;5.47;;;21.00;57.40;;;;;;5052616;28;20815;-62
2022/11/20 09:33:06;;;;;;;6.60;6.27;;;20.90;57.70;;;;;;5052019;28;20476;-65
2022/11/20 09:35:33;;;;;;;6.60;6.00;;;20.90;57.00;;;;;;5047886;28;20441;-63
2022/11/20 09:38:05;;;;;;;6.23;5.93;;;20.90;57.60;;;;;;5032481;28;20540;-67
2022/11/20 09:40:35;;;;;;;6.47;6.17;;;20.90;56.80;;;;;;5032318;28;20537;-66
2022/11/20 09:43:08;;;;;;;5.87;5.47;;;20.90;56.80;;;;;;5032354;28;20496;-67
2022/11/20 09:45:51;;;;;;;5.50;5.30;;;20.90;57.10;;;;;;5037681;28;20443;-66
2022/11/20 09:48:37;;;;;;;6.33;5.83;;;20.90;57.50;;;;;;5035138;28;20529;-67
2022/11/20 09:51:13;;;;;;;6.23;5.93;;;20.90;57.20;;;;;;5034275;28;20457;-67
2022/11/20 09:53:52;;;;;;;6.37;6.07;;;20.90;57.00;;;;;;5033205;28;20552;-67
2022/11/20 09:56:22;;;;;;;5.93;5.70;;;20.90;56.90;;;;;;5032482;28;20484;-67
2022/11/20 09:58:51;;;;;;;6.37;5.90;;;20.90;57.30;;;;;;5032414;28;20990;-67
2022/11/20 10:01:20;;;;;;;6.40;6.00;;;20.90;56.80;;;;;;5032370;28;20487;-66
2022/11/20 10:03:54;;;;;;;6.07;5.80;;;20.90;56.80;;;;;;5032482;28;20591;-67
2022/11/20 10:06:30;;;;;;;5.87;5.63;;;20.80;56.70;;;;;;5033310;28;20448;-65
2022/11/20 10:09:15;;;;;;;6.77;6.13;;;20.80;56.80;;;;;;5032188;28;20543;-67
2022/11/20 10:11:57;;;;;;;5.50;5.30;;;20.80;56.70;;;;;;5031699;28;20492;-66
2022/11/20 10:14:31;;;;;;;5.93;5.73;;;20.70;57.20;;;;;;5031846;28;20484;-67
2022/11/20 10:17:06;;;;;;;6.10;5.80;;;20.70;56.70;;;;;;5032027;28;20535;-67
2022/11/20 10:19:57;;;;;;;5.80;5.50;;;20.70;56.80;;;;;;5031949;28;20451;-67
2022/11/20 10:22:40;;;;;;;6.50;6.20;;;20.70;56.80;;;;;;5031905;28;20915;-67
2022/11/20 10:25:14;;;;;;;6.10;5.90;;;20.60;56.70;;;;;;5032665;28;20476;-67
2022/11/20 10:28:17;;;;;;;6.40;6.10;;;20.60;56.80;;;;;;5032990;28;20441;-67
2022/11/20 10:30:46;;;;;;;6.50;6.20;;;20.60;56.80;;;;;;5032801;28;20441;-67
2022/11/20 10:33:19;;;;;;;5.70;5.40;;;20.50;56.70;;;;;;5033243;28;20524;-67
2022/11/20 10:35:51;;;;;;;5.67;5.47;;;20.50;57.30;;;;;;5033072;28;20457;-67
2022/11/20 10:38:22;;;;;;;5.53;5.30;;;20.50;56.80;;;;;;5033749;28;20532;-68
2022/11/20 10:40:52;;;;;;;6.30;5.80;;;20.50;56.90;;;;;;5032889;28;20986;-67
2022/11/20 10:43:29;;;;;;;6.77;6.43;;;20.40;57.30;;;;;;5046280;28;21018;-58
2022/11/20 10:46:00;;;;;;;6.50;6.10;;;20.30;56.90;;;;;;5039697;28;20476;-61
2022/11/20 10:48:28;;;;;;;7.50;7.00;;;20.30;57.20;;;;;;5032583;28;20503;-59
2022/11/20 10:51:13;;;;;;;6.63;6.33;;;20.30;57.50;;;;;;5031273;28;20536;-58
2022/11/20 10:53:58;;;;;;;6.57;6.00;;;20.30;57.70;;;;;;5031415;28;20469;-61
2022/11/20 10:56:32;;;;;;;6.43;6.03;;;20.30;57.60;;;;;;5031327;28;20536;-60
2022/11/20 10:59:16;;;;;;;6.20;5.90;;;20.30;57.70;;;;;;5031571;28;20525;-61
2022/11/20 11:01:44;;;;;;;6.50;6.10;;;20.30;58.10;;;;;;5032211;28;20588;-63
2022/11/20 11:04:27;;;;;;;7.57;7.17;;;20.30;58.20;;;;;;5033911;28;20980;-62
2022/11/20 11:06:59;;;;;;;6.00;5.70;;;20.40;57.90;;;;;;5037511;28;21035;-61
2022/11/20 11:09:35;;;;;;;6.20;5.90;;;20.50;58.50;;;;;;5037812;28;20445;-61
2022/11/20 11:12:01;;;;;;;7.67;7.23;;;20.60;58.30;;;;;;5031452;28;20475;-60
2022/11/20 11:14:30;;;;;;;6.90;6.50;;;20.70;58.20;;;;;;5034057;28;20445;-61
2022/11/20 11:16:59;;;;;;;8.47;7.90;;;20.70;58.00;;;;;;5051253;28;20856;-61
2022/11/20 11:19:25;;;;;;;7.40;7.10;;;20.80;57.90;;;;;;5051240;28;20451;-59
2022/11/20 11:21:56;;;;;;;6.80;6.50;;;20.80;57.70;;;;;;5050752;28;20575;-62
2022/11/20 11:24:25;;;;;;;7.03;6.63;;;20.90;57.60;;;;;;5049637;28;20453;-62
2022/11/20 11:27:04;;;;;;;7.67;6.97;;;20.90;57.40;;;;;;5051825;28;20448;-58
2022/11/20 11:29:32;;;;;;;6.97;6.67;;;20.90;57.20;;;;;;5054021;28;20476;-60
2022/11/20 11:32:06;;;;;;;7.00;6.70;;;21.00;57.20;;;;;;5054905;28;20460;-59
2022/11/20 11:34:33;;;;;;;7.03;6.63;;;21.00;57.00;;;;;;5053203;28;20891;-61
2022/11/20 11:37:03;;;;;;;6.67;6.30;;;21.00;56.90;;;;;;5055221;28;20950;-60
2022/11/20 11:39:31;;;;;;;8.17;7.67;;;21.00;56.80;;;;;;5049873;28;20850;-61
2022/11/20 11:41:59;;;;;;;6.80;6.40;;;21.10;56.80;;;;;;5052709;28;20491;-60
2022/11/20 11:47:23;;;;;;;7.50;7.10;;;21.10;56.60;;;;;;5055070;28;20478;-62
2022/11/20 11:49:49;;;;;;;7.07;6.57;;;21.10;56.60;;;;;;5054533;28;20447;-61
2022/11/20 11:52:19;;;;;;;7.07;6.60;;;21.20;56.70;;;;;;5051393;28;20470;-68
2022/11/20 11:54:51;;;;;;;7.70;7.20;;;21.20;56.80;;;;;;5049066;28;20451;-62
2022/11/20 11:57:24;;;;;;;7.00;6.60;;;21.20;56.30;;;;;;5034694;28;20452;-61
2022/11/20 12:00:02;;;;;;;7.20;6.80;;;21.30;57.00;;;;;;5034556;28;20524;-62
2022/11/20 12:02:44;;;;;;;7.43;6.80;;;21.40;57.00;;;;;;5040021;28;20490;-64
2022/11/20 12:05:19;;;;;;;7.00;6.53;;;21.40;56.40;;;;;;5048278;28;20539;-64
2022/11/20 12:07:48;;;;;;;6.23;5.93;;;21.50;56.30;;;;;;5034885;28;20952;-65
2022/11/20 12:10:24;;;;;;;6.50;6.10;;;21.60;56.40;;;;;;5034110;28;20467;-57
2022/11/20 12:12:55;;;;;;;7.73;7.30;;;21.70;56.30;;;;;;5034817;28;21007;-60
2022/11/20 12:15:32;;;;;;;7.33;6.90;;;21.80;56.70;;;;;;5034113;28;20452;-60
2022/11/20 12:18:00;;;;;;;6.87;6.57;;;21.90;56.10;;;;;;5034122;28;20531;-61
2022/11/20 12:20:33;;;;;;;6.70;6.20;;;22.00;55.90;;;;;;5034193;28;20535;-66
2022/11/20 12:23:07;;;;;;;6.53;6.23;;;22.00;55.90;;;;;;5045037;28;20575;-65
2022/11/20 12:25:37;;;;;;;7.03;6.43;;;22.10;55.70;;;;;;5035509;28;20476;-63
2022/11/20 12:28:36;;;;;;;6.57;6.10;;;22.10;55.40;;;;;;5034763;28;20987;-66
2022/11/20 12:31:22;;;;;;;6.67;6.37;;;22.20;55.90;;;;;;5034949;28;20872;-66
2022/11/20 12:34:01;;;;;;;7.17;6.67;;;22.20;55.30;;;;;;5037667;28;20476;-64
2022/11/20 12:36:38;;;;;;;7.43;7.13;;;22.20;55.50;;;;;;5035321;28;20532;-68
2022/11/20 12:39:33;;;;;;;6.80;6.40;;;22.30;55.80;;;;;;5039449;28;20481;-68
2022/11/20 12:45:28;;;;;;;6.50;6.10;;;22.20;55.40;;;;;;5017114;28;20426;-65
2022/11/20 12:48:33;;;;;;;6.40;5.90;;;22.30;55.80;;;;;;5026471;28;20233;-64
2022/11/20 12:51:19;;;;;;;6.50;6.20;;;22.50;55.80;;;;;;5060310;28;20487;-65
2022/11/20 12:54:00;;;;;;;6.30;6.00;;;22.50;55.70;;;;;;5059216;28;20551;-65
2022/11/20 12:56:34;;;;;;;7.63;7.23;;;22.60;55.60;;;;;;5057714;28;20551;-66
2022/11/20 12:59:19;;;;;;;6.73;6.33;;;22.50;56.20;;;;;;5053457;28;20439;-67
2022/11/20 13:01:52;;;;;;;6.27;5.87;;;22.60;57.60;;;;;;5053327;28;20480;-65
2022/11/20 13:04:33;;;;;;;6.70;6.40;;;22.60;57.50;;;;;;5069484;23;21002;-53
2022/11/20 13:07:04;;;;;;;6.30;5.80;;;22.50;57.00;;;;;;5049671;28;20441;-49
2022/11/20 13:09:31;;;;;;;7.57;6.97;;;22.50;57.90;;;;;;5033321;28;20527;-54
2022/11/20 13:12:09;;;;;;;6.80;6.50;;;22.60;57.80;;;;;;5039909;28;20523;-50
2022/11/20 13:14:41;;;;;;;6.93;6.43;;;22.60;58.00;;;;;;5053038;28;20503;-52
2022/11/20 13:17:15;;;;;;;6.33;6.03;;;22.60;58.20;;;;;;5053432;28;20484;-51
2022/11/20 13:19:42;;;;;;;5.77;5.40;;;22.60;57.80;;;;;;5053486;28;20523;-53
2022/11/20 13:22:10;;;;;;;6.63;6.23;;;22.60;57.60;;;;;;5052946;28;20567;-53
2022/11/20 13:24:37;;;;;;;6.20;5.90;;;22.60;57.40;;;;;;5053401;28;21038;-57